Time;durP1;ratioP1;P1;durP2;ratioP2;P2;SDS_P1;SDS_P2;PMS_P1;PMS_P2;Temp;Humidity;BMP_temperature;BMP_pressure;BME280_temperature;BME280_humidity;BME280_pressure;Samples;Min_cycle;Max_cycle;Signal;HPM_P1;HPM_P2
2021/06/05 00:02:22;;;;;;;11.60;10.30;;;;;;;-144.99;74.67;52244.28;5069626;28;20259;-75
2021/06/05 00:05:02;;;;;;;10.27;9.07;;;;;;;-144.99;74.59;52223.88;5064641;28;21055;-75
2021/06/05 00:07:37;;;;;;;14.43;9.90;;;;;;;-144.99;75.13;52232.03;5058441;28;20206;-76
2021/06/05 00:10:08;;;;;;;10.83;9.77;;;;;;;-144.99;75.01;52252.44;5066541;28;20225;-74
2021/06/05 00:12:42;;;;;;;10.80;9.23;;;;;;;-144.99;75.13;52223.88;5065126;28;20205;-74
2021/06/05 00:15:21;;;;;;;12.53;9.60;;;;;;;-144.99;75.42;52250.38;5062512;28;20213;-73
2021/06/05 00:17:56;;;;;;;10.93;8.97;;;;;;;-144.99;75.33;52264.66;5068503;28;20217;-74
2021/06/05 00:20:33;;;;;;;10.27;9.17;;;;;;;-144.99;75.67;52256.50;5067879;28;20286;-75
2021/06/05 00:23:08;;;;;;;9.73;8.53;;;;;;;-144.99;75.70;52240.19;5066518;28;20766;-74
2021/06/05 00:25:42;;;;;;;9.33;8.33;;;;;;;-144.99;75.81;52215.75;5069098;28;20393;-75
2021/06/05 00:28:18;;;;;;;12.73;9.33;;;;;;;-144.99;75.81;52227.97;5068975;28;20224;-76
2021/06/05 00:30:52;;;;;;;11.37;10.27;;;;;;;-144.99;75.79;52187.19;5068677;28;20228;-75
2021/06/05 00:33:26;;;;;;;10.93;9.93;;;;;;;-144.99;75.98;52236.13;5060417;28;20236;-75
2021/06/05 00:36:07;;;;;;;11.50;9.87;;;;;;;-144.99;75.98;52223.88;5069164;28;20221;-74
2021/06/05 00:38:42;;;;;;;9.63;8.63;;;;;;;-144.99;76.24;52244.28;5058671;28;20621;-75
2021/06/05 00:41:19;;;;;;;12.03;9.77;;;;;;;-144.99;76.27;52223.88;5060542;28;20404;-75
2021/06/05 00:43:56;;;;;;;12.00;10.27;;;;;;;-144.99;76.38;52215.75;5067401;28;20240;-74
2021/06/05 00:46:32;;;;;;;9.63;8.63;;;;;;;-144.99;76.71;52211.66;5067783;28;20262;-72
2021/06/05 00:49:06;;;;;;;12.07;10.17;;;;;;;-144.99;77.10;52256.50;5061504;28;20664;-74
2021/06/05 00:51:49;;;;;;;12.40;10.17;;;;;;;-144.99;77.12;52207.59;5070893;28;20732;-74
2021/06/05 00:54:26;;;;;;;10.37;9.17;;;;;;;-144.99;77.35;52236.13;5076482;28;20232;-74
2021/06/05 00:57:08;;;;;;;11.03;9.90;;;;;;;-144.99;77.67;52205.53;5074842;28;20225;-73
2021/06/05 00:59:42;;;;;;;10.17;9.13;;;;;;;-144.99;77.60;52244.28;5068438;28;20283;-75
2021/06/05 01:02:17;;;;;;;10.47;9.43;;;;;;;-144.99;77.81;52234.09;4717758;28;10000150;-74
2021/06/05 01:04:52;;;;;;;12.13;10.83;;;;;;;-144.99;77.76;52227.97;5067438;28;20249;-74
2021/06/05 01:07:31;;;;;;;13.53;11.27;;;;;;;-144.99;77.88;52211.66;5067352;28;20235;-76
2021/06/05 01:10:10;;;;;;;16.23;10.33;;;;;;;-144.99;78.08;52203.50;5067726;28;20220;-76
2021/06/05 01:12:47;;;;;;;12.43;11.23;;;;;;;-144.99;78.27;52225.94;5070155;28;20218;-75
2021/06/05 01:15:27;;;;;;;11.03;9.73;;;;;;;-144.99;78.25;52227.97;5069320;28;20205;-76
2021/06/05 01:18:05;;;;;;;12.60;9.37;;;;;;;-144.99;78.25;52219.81;5063752;28;20347;-76
2021/06/05 01:20:51;;;;;;;14.97;10.37;;;;;;;-144.99;78.29;52221.84;5059847;28;20208;-76
2021/06/05 01:23:46;;;;;;;12.03;10.70;;;;;;;-144.99;78.34;52195.34;5065707;28;20247;-76
2021/06/05 01:26:28;;;;;;;17.73;10.63;;;;;;;-144.99;78.69;52232.03;5068991;28;20205;-76
2021/06/05 01:29:10;;;;;;;10.87;9.37;;;;;;;-144.99;78.55;52223.88;5064463;28;20564;-76
2021/06/05 01:31:48;;;;;;;13.27;9.87;;;;;;;-144.99;78.63;52191.28;5065793;28;20640;-76
2021/06/05 01:34:24;;;;;;;14.03;11.43;;;;;;;-144.99;78.85;52219.81;5070060;28;20551;-75
2021/06/05 01:37:00;;;;;;;11.73;10.43;;;;;;;-144.99;78.89;52219.81;5064456;28;20196;-74
2021/06/05 01:39:38;;;;;;;13.20;10.77;;;;;;;-144.99;79.12;52217.78;5067687;28;20234;-74
2021/06/05 01:42:18;;;;;;;12.73;11.47;;;;;;;-144.99;79.25;52240.19;5065029;28;20197;-73
2021/06/05 01:44:57;;;;;;;11.17;10.07;;;;;;;-144.99;79.32;52232.03;5068103;28;20726;-74
2021/06/05 01:47:32;;;;;;;11.03;9.90;;;;;;;-144.99;79.44;52211.66;5067872;28;20215;-73
2021/06/05 01:50:09;;;;;;;12.07;10.87;;;;;;;-144.99;79.51;52215.75;5061463;28;20709;-73
2021/06/05 01:52:45;;;;;;;14.20;10.27;;;;;;;-144.99;79.60;52234.09;5059774;28;20215;-73
2021/06/05 01:55:26;;;;;;;11.53;9.90;;;;;;;-144.99;79.72;52223.88;5068429;28;20212;-73
2021/06/05 01:58:12;;;;;;;11.80;10.57;;;;;;;-144.99;79.92;52225.94;5065192;28;20212;-73
2021/06/05 02:00:49;;;;;;;14.60;13.20;;;;;;;-144.99;79.94;52236.13;5067199;28;20671;-73
2021/06/05 02:03:25;;;;;;;10.80;9.67;;;;;;;-144.99;79.92;52223.88;5059991;28;20242;-73
2021/06/05 02:06:00;;;;;;;12.00;10.80;;;;;;;-144.99;80.21;52256.50;5061909;28;20204;-73
2021/06/05 02:08:34;;;;;;;12.90;11.57;;;;;;;-144.99;80.25;52242.22;5067893;28;20230;-73
2021/06/05 02:11:16;;;;;;;21.60;13.60;;;;;;;-144.99;80.45;52254.47;5065653;28;20280;-73
2021/06/05 02:13:55;;;;;;;15.80;12.67;;;;;;;-144.99;80.76;52248.34;5067560;28;20417;-73
2021/06/05 02:16:32;;;;;;;16.27;11.93;;;;;;;-144.99;80.73;52232.03;5063526;28;20211;-71
2021/06/05 02:19:11;;;;;;;12.73;11.53;;;;;;;-144.99;80.87;52252.44;5064131;28;20739;-73
2021/06/05 02:21:48;;;;;;;13.77;12.43;;;;;;;-144.99;80.73;52248.34;5067883;28;20676;-73
2021/06/05 02:24:27;;;;;;;19.80;14.63;;;;;;;-144.99;81.22;52244.28;5068361;28;20357;-73
2021/06/05 02:27:06;;;;;;;17.07;13.80;;;;;;;-144.99;81.37;52207.59;5065364;28;20428;-73
2021/06/05 02:29:44;;;;;;;19.00;13.03;;;;;;;-144.99;81.31;52225.94;5068628;28;20625;-74
2021/06/05 02:32:20;;;;;;;16.57;12.40;;;;;;;-144.99;81.42;52195.34;5067986;28;20579;-74
2021/06/05 02:34:57;;;;;;;12.93;11.60;;;;;;;-144.99;81.46;52211.66;5068938;28;20290;-74
2021/06/05 02:37:34;;;;;;;15.37;11.77;;;;;;;-144.99;81.73;52240.19;5068029;28;20208;-73
2021/06/05 02:40:14;;;;;;;17.77;13.87;;;;;;;-144.99;82.30;52270.78;5058340;28;20236;-74
2021/06/05 02:42:49;;;;;;;16.73;12.67;;;;;;;-144.99;82.39;52240.19;5061117;28;20225;-74
2021/06/05 02:45:29;;;;;;;13.50;12.00;;;;;;;-144.99;82.55;52219.81;5056422;28;20745;-74
2021/06/05 02:48:07;;;;;;;16.63;12.93;;;;;;;-144.99;82.74;52230.00;5072402;28;20501;-74
2021/06/05 02:50:44;;;;;;;17.03;12.60;;;;;;;-144.99;82.67;52285.03;5072099;28;20243;-74
2021/06/05 02:53:18;;;;;;;14.67;13.17;;;;;;;-144.99;82.60;52203.50;5072550;28;20310;-74
2021/06/05 02:55:53;;;;;;;15.67;13.57;;;;;;;-144.99;82.85;52232.03;5072487;28;20227;-74
2021/06/05 02:58:28;;;;;;;18.50;13.67;;;;;;;-144.99;82.62;52223.88;5072091;28;20290;-74
2021/06/05 03:01:05;;;;;;;14.57;12.80;;;;;;;-144.99;82.88;52223.88;5072948;28;20231;-75
2021/06/05 03:03:40;;;;;;;17.77;13.23;;;;;;;-144.99;82.74;52227.97;5072485;28;20729;-74
2021/06/05 03:06:12;;;;;;;13.90;11.70;;;;;;;-144.99;82.87;52230.00;5059173;28;20279;-73
2021/06/05 03:08:48;;;;;;;13.13;11.67;;;;;;;-144.99;82.93;52191.28;5072870;28;20212;-75
2021/06/05 03:11:25;;;;;;;13.67;10.87;;;;;;;-144.99;82.96;52221.84;5072617;28;20671;-74
2021/06/05 03:13:59;;;;;;;13.70;12.23;;;;;;;-144.99;82.94;52240.19;5072364;28;20719;-74
2021/06/05 03:16:39;;;;;;;15.03;12.20;;;;;;;-144.99;83.28;52236.13;5072531;28;20212;-73
2021/06/05 03:19:10;;;;;;;15.70;14.20;;;;;;;-144.99;83.38;52232.03;5065946;28;20212;-74
2021/06/05 03:21:45;;;;;;;16.20;13.07;;;;;;;-144.99;83.36;52240.19;5071809;28;20533;-74
2021/06/05 03:24:19;;;;;;;13.33;11.93;;;;;;;-144.99;83.66;52256.50;5080628;28;20324;-74
2021/06/05 03:26:54;;;;;;;13.20;10.93;;;;;;;-144.99;83.41;52236.13;5086340;28;20573;-74
2021/06/05 03:29:30;;;;;;;12.97;11.50;;;;;;;-144.99;83.44;52260.56;5079320;28;20203;-76
2021/06/05 03:32:10;;;;;;;13.80;11.00;;;;;;;-144.99;83.28;52240.19;5065384;28;20276;-75
2021/06/05 03:34:42;;;;;;;9.90;8.90;;;;;;;-144.99;83.27;52260.56;5071828;28;20224;-74
2021/06/05 03:37:16;;;;;;;15.87;11.43;;;;;;;-144.99;83.06;52211.66;5064456;28;20667;-74
2021/06/05 03:39:51;;;;;;;11.83;10.67;;;;;;;-144.99;83.20;52264.66;5071705;28;20838;-73
2021/06/05 03:42:25;;;;;;;17.00;10.57;;;;;;;-144.99;83.09;52232.03;5072069;28;20216;-74
2021/06/05 03:44:57;;;;;;;17.30;10.43;;;;;;;-144.99;82.84;52262.63;5068886;28;20746;-74
2021/06/05 03:47:33;;;;;;;12.30;9.10;;;;;;;-144.99;82.67;52264.66;5071230;28;20212;-74
2021/06/05 03:50:10;;;;;;;10.90;9.80;;;;;;;-144.99;82.41;52256.50;5066423;28;20272;-75
2021/06/05 03:52:41;;;;;;;12.57;9.83;;;;;;;-144.99;82.38;52232.03;5071569;28;20201;-74
2021/06/05 03:55:17;;;;;;;12.87;10.90;;;;;;;-144.99;82.17;52244.28;5067800;28;20216;-75
2021/06/05 03:57:52;;;;;;;14.93;11.37;;;;;;;-144.99;82.00;52223.88;5071012;28;20593;-74
2021/06/05 04:00:31;;;;;;;16.77;12.33;;;;;;;-144.99;82.02;52248.34;5070870;28;20671;-74
2021/06/05 04:03:05;;;;;;;17.77;12.67;;;;;;;-144.99;81.82;52246.31;5064698;28;20231;-73
2021/06/05 04:05:38;;;;;;;13.80;12.03;;;;;;;-144.99;81.29;52236.13;5070339;28;20746;-73
2021/06/05 04:08:14;;;;;;;15.50;13.87;;;;;;;-144.99;80.87;52211.66;5070711;28;20196;-74
2021/06/05 04:10:49;;;;;;;23.10;14.60;;;;;;;-144.99;80.59;52252.44;5070938;28;20204;-74
2021/06/05 04:13:24;;;;;;;18.03;13.03;;;;;;;-144.99;80.58;52268.72;5070925;28;20220;-74
2021/06/05 04:15:58;;;;;;;10.93;9.83;;;;;;;-144.99;80.13;52195.34;5058654;28;20203;-75
2021/06/05 04:18:36;;;;;;;12.47;11.17;;;;;;;-144.99;79.88;52262.63;5066411;28;20204;-74
2021/06/05 04:21:15;;;;;;;12.57;9.60;;;;;;;-144.99;79.53;52232.03;5070598;28;20208;-75
2021/06/05 04:23:49;;;;;;;13.77;10.47;;;;;;;-144.99;79.12;52215.75;5068515;28;20258;-74
2021/06/05 04:26:25;;;;;;;12.77;9.80;;;;;;;-144.99;78.33;52197.41;5068631;28;20251;-74
2021/06/05 04:29:00;;;;;;;13.03;10.90;;;;;;;-144.99;78.14;52195.34;5063811;28;20228;-74
2021/06/05 04:31:34;;;;;;;14.00;10.33;;;;;;;-144.99;77.86;52211.66;5062950;28;20623;-74
2021/06/05 04:34:13;;;;;;;15.30;10.60;;;;;;;-144.99;77.63;52213.69;5066354;28;20231;-73
2021/06/05 04:36:48;;;;;;;11.33;10.23;;;;;;;-144.99;77.16;52195.34;5070581;28;20228;-74
2021/06/05 04:39:20;;;;;;;9.93;8.77;;;;;;;-144.99;76.80;52187.19;5070877;28;20275;-75
2021/06/05 04:41:55;;;;;;;14.10;10.43;;;;;;;-144.99;76.09;52227.97;5070465;28;20331;-73
2021/06/05 04:44:27;;;;;;;12.03;9.77;;;;;;;-144.99;75.93;52223.88;5066657;28;20229;-74
2021/06/05 04:47:02;;;;;;;11.30;9.27;;;;;;;-144.99;75.19;52215.75;5064553;28;20664;-73
2021/06/05 04:49:32;;;;;;;10.57;9.30;;;;;;;-144.99;74.82;52223.88;5070435;28;20216;-75
2021/06/05 04:52:06;;;;;;;13.97;12.47;;;;;;;-144.99;74.64;52187.19;5070443;28;20205;-74
2021/06/05 04:54:41;;;;;;;17.30;14.37;;;;;;;-144.99;74.78;52166.81;5067344;28;20416;-71
2021/06/05 04:57:15;;;;;;;13.97;10.33;;;;;;;-144.99;74.45;52183.13;5073467;28;20200;-74
2021/06/05 04:59:47;;;;;;;14.47;12.43;;;;;;;-144.99;74.45;52215.75;5069531;28;20257;-73
2021/06/05 05:02:22;;;;;;;12.43;10.43;;;;;;;-144.99;73.55;52201.47;5069893;28;20652;-74
2021/06/05 05:05:01;;;;;;;15.23;11.40;;;;;;;-144.99;73.39;52203.50;5059778;28;20316;-74
2021/06/05 05:07:33;;;;;;;17.50;12.10;;;;;;;-144.99;73.18;52223.88;5056773;28;20252;-74
2021/06/05 05:10:07;;;;;;;9.70;8.70;;;;;;;-144.99;72.56;52223.88;5069361;28;20664;-75
2021/06/05 05:12:41;;;;;;;10.33;9.23;;;;;;;-144.99;72.53;52227.97;5068172;28;20284;-75
2021/06/05 05:15:16;;;;;;;11.97;9.70;;;;;;;-144.99;72.54;52179.06;5070680;28;20307;-75
2021/06/05 05:17:51;;;;;;;12.10;8.80;;;;;;;-144.99;72.68;52162.75;5069193;28;20209;-74
2021/06/05 05:20:31;;;;;;;10.13;7.83;;;;;;;-144.99;72.56;52223.88;5070602;28;20213;-74
2021/06/05 05:23:06;;;;;;;10.23;8.83;;;;;;;-144.99;72.29;52189.25;5067394;28;20225;-74
2021/06/05 05:25:41;;;;;;;11.13;9.07;;;;;;;-144.99;72.64;52207.59;5067348;28;20564;-74
2021/06/05 05:28:17;;;;;;;14.27;10.37;;;;;;;-144.99;72.44;52187.19;5061573;28;20314;-74
2021/06/05 05:30:51;;;;;;;15.63;12.70;;;;;;;-144.99;72.62;52158.66;5064565;28;20296;-75
2021/06/05 05:33:27;;;;;;;13.87;9.57;;;;;;;-144.99;72.37;52199.44;5069393;28;20686;-73
2021/06/05 05:36:03;;;;;;;14.30;11.33;;;;;;;-144.99;72.13;52199.44;5060067;28;20205;-73
2021/06/05 05:38:38;;;;;;;13.00;10.47;;;;;;;-144.99;71.39;52191.28;5064497;28;20288;-73
2021/06/05 05:41:12;;;;;;;10.10;8.97;;;;;;;-144.99;70.66;52166.81;5058543;28;20206;-74
2021/06/05 05:43:48;;;;;;;11.97;10.07;;;;;;;-144.99;70.52;52164.78;5069022;28;20318;-73
2021/06/05 05:46:22;;;;;;;10.90;8.77;;;;;;;-144.99;69.96;52199.44;5069408;28;20215;-75
2021/06/05 05:48:55;;;;;;;19.63;13.53;;;;;;;-144.99;69.60;52150.53;5066733;28;20618;-75
2021/06/05 05:51:32;;;;;;;14.63;9.43;;;;;;;-144.99;69.35;52191.28;5069051;28;20214;-74
2021/06/05 05:54:07;;;;;;;9.20;8.20;;;;;;;-144.99;68.80;52166.81;5058750;28;20369;-73
2021/06/05 05:56:39;;;;;;;14.47;8.13;;;;;;;-144.99;68.04;52158.66;5069180;28;20666;-74
2021/06/05 05:59:16;;;;;;;15.73;11.67;;;;;;;-144.99;68.19;52170.91;5068963;28;20389;-74
2021/06/05 06:01:51;;;;;;;10.67;8.57;;;;;;;-144.99;67.59;52170.91;5069843;28;20626;-74
2021/06/05 06:04:23;;;;;;;12.53;10.17;;;;;;;-144.99;67.56;52191.28;5069959;28;20307;-74
2021/06/05 06:06:59;;;;;;;11.63;8.83;;;;;;;-144.99;67.13;52179.06;5067053;28;20642;-77
2021/06/05 06:09:33;;;;;;;11.40;8.03;;;;;;;-144.99;67.34;52185.16;5063781;28;20578;-77
2021/06/05 06:12:09;;;;;;;11.80;9.63;;;;;;;-144.99;67.94;52207.59;5068303;28;20211;-75
2021/06/05 06:14:43;;;;;;;9.23;8.33;;;;;;;-144.99;67.89;52187.19;5056698;28;20298;-75
2021/06/05 06:17:18;;;;;;;9.17;8.27;;;;;;;-144.99;67.89;52162.75;5069724;28;20637;-74
2021/06/05 06:19:52;;;;;;;10.40;8.70;;;;;;;-144.99;67.84;52197.41;5069453;28;20316;-74
2021/06/05 06:22:26;;;;;;;10.33;8.90;;;;;;;-144.99;67.44;52207.59;5068725;28;20284;-75
2021/06/05 06:25:02;;;;;;;9.77;7.33;;;;;;;-144.99;67.36;52152.56;5062001;28;20228;-75
2021/06/05 06:27:35;;;;;;;9.70;7.90;;;;;;;-144.99;66.64;52154.59;5062877;28;20201;-74
2021/06/05 06:30:08;;;;;;;10.93;9.57;;;;;;;-144.99;66.34;52174.97;5059772;28;20197;-74
2021/06/05 06:32:40;;;;;;;10.47;8.53;;;;;;;-144.99;66.04;52136.25;5067244;28;20287;-75
2021/06/05 06:35:12;;;;;;;11.40;9.10;;;;;;;-144.99;65.78;52174.97;5069310;28;20251;-76
2021/06/05 06:37:49;;;;;;;18.73;12.10;;;;;;;-144.99;65.25;52170.91;5074898;28;20245;-76
2021/06/05 06:40:36;;;;;;;10.90;8.03;;;;;;;-144.99;65.09;52172.94;5072550;28;20257;-76
2021/06/05 06:43:17;;;;;;;9.03;7.83;;;;;;;-144.99;64.19;52168.84;5069597;28;20312;-75
2021/06/05 06:45:51;;;;;;;10.90;7.90;;;;;;;-144.99;63.55;52134.22;5063992;28;20306;-75
2021/06/05 06:48:23;;;;;;;9.97;8.97;;;;;;;-144.99;63.89;52170.91;5070530;28;20230;-76
2021/06/05 06:50:58;;;;;;;10.13;8.73;;;;;;;-144.99;62.62;52158.66;5063806;28;20206;-76
2021/06/05 06:53:36;;;;;;;12.33;10.03;;;;;;;-144.99;62.71;52162.75;5071161;28;20237;-75
2021/06/05 06:56:11;;;;;;;13.17;8.93;;;;;;;-144.99;62.39;52170.91;5067413;28;20257;-75
2021/06/05 06:58:46;;;;;;;17.67;11.47;;;;;;;-144.99;62.40;52170.91;5061897;28;20511;-74
2021/06/05 07:01:21;;;;;;;11.77;8.50;;;;;;;-144.99;62.22;52146.44;5069767;28;20207;-74
2021/06/05 07:03:56;;;;;;;11.10;8.63;;;;;;;-144.99;61.63;52097.53;5070288;28;20246;-76
2021/06/05 07:06:30;;;;;;;8.63;7.37;;;;;;;-144.99;61.09;52162.75;5069420;28;20327;-72
2021/06/05 07:09:13;;;;;;;8.70;5.93;;;;;;;-144.99;60.95;52134.22;5065870;28;20697;-74
2021/06/05 07:11:48;;;;;;;11.57;6.60;;;;;;;-144.99;61.41;52138.28;5068508;28;20215;-75
2021/06/05 07:14:23;;;;;;;10.43;5.97;;;;;;;-144.99;59.38;52162.75;5063914;28;20229;-72
2021/06/05 07:17:00;;;;;;;9.70;8.70;;;;;;;-144.99;59.31;52150.53;5065235;28;20203;-73
2021/06/05 07:19:34;;;;;;;11.13;7.47;;;;;;;-144.99;59.40;52150.53;5058430;28;20667;-72
2021/06/05 07:22:09;;;;;;;9.13;6.07;;;;;;;-144.99;60.26;52142.38;5068719;28;20203;-72
2021/06/05 07:24:45;;;;;;;10.73;8.10;;;;;;;-144.99;60.44;52154.59;5067750;28;20319;-73
2021/06/05 07:27:20;;;;;;;13.83;8.97;;;;;;;-144.99;58.73;52154.59;5063521;28;20227;-72
2021/06/05 07:29:52;;;;;;;11.30;5.93;;;;;;;-144.99;58.52;52107.72;5068914;28;20208;-73
2021/06/05 07:32:26;;;;;;;8.67;5.87;;;;;;;-144.99;58.47;52105.69;5060512;28;20623;-70
2021/06/05 07:35:01;;;;;;;7.53;6.13;;;;;;;-144.99;57.80;52121.97;5070219;28;20298;-72
2021/06/05 07:37:36;;;;;;;13.33;7.97;;;;;;;-144.99;57.27;52101.59;5069845;28;20215;-72
2021/06/05 07:40:12;;;;;;;7.57;5.53;;;;;;;-144.99;56.97;52113.84;5070194;28;20257;-72
2021/06/05 07:42:46;;;;;;;7.30;6.03;;;;;;;-144.99;55.87;52105.69;5068430;28;20245;-72
2021/06/05 07:45:21;;;;;;;9.53;6.17;;;;;;;-144.99;55.08;52138.28;5065361;28;20230;-71
2021/06/05 07:47:56;;;;;;;8.87;5.80;;;;;;;-144.99;54.23;52146.44;5063237;28;20213;-71
2021/06/05 07:50:28;;;;;;;8.57;6.57;;;;;;;-144.99;55.40;52089.38;5070642;28;20214;-71
2021/06/05 07:53:03;;;;;;;8.20;5.67;;;;;;;-144.99;54.24;52146.44;5074070;28;20251;-71
2021/06/05 07:55:42;;;;;;;7.27;4.90;;;;;;;-144.99;54.53;52121.97;5072731;28;20229;-72
2021/06/05 07:58:17;;;;;;;10.77;5.67;;;;;;;-144.99;54.62;52111.78;5065080;28;20244;-71
2021/06/05 08:00:52;;;;;;;7.03;4.73;;;;;;;-144.99;53.06;52138.28;5069848;28;20213;-72
2021/06/05 08:03:26;;;;;;;9.73;4.53;;;;;;;-144.99;52.21;52130.13;5070022;28;20355;-72
2021/06/05 08:05:58;;;;;;;7.60;5.03;;;;;;;-144.99;52.44;52121.97;5068937;28;20214;-73
2021/06/05 08:08:32;;;;;;;7.57;4.30;;;;;;;-144.99;51.49;52121.97;5070206;28;20206;-73
2021/06/05 08:11:09;;;;;;;6.23;4.87;;;;;;;-144.99;51.58;52109.75;5064166;28;20691;-72
2021/06/05 08:13:43;;;;;;;7.83;5.03;;;;;;;-144.99;51.48;52130.13;5066488;28;20228;-71
2021/06/05 08:16:18;;;;;;;12.30;7.10;;;;;;;-144.99;50.74;52101.59;5063334;28;20548;-71
2021/06/05 08:18:53;;;;;;;7.37;4.87;;;;;;;-144.99;49.56;52109.75;5063418;28;20287;-70
2021/06/05 08:21:27;;;;;;;6.70;4.17;;;;;;;-144.99;49.22;52113.84;5066130;28;20199;-72
2021/06/05 08:24:02;;;;;;;4.47;3.97;;;;;;;-144.99;48.62;52089.38;5062261;28;20244;-72
2021/06/05 08:26:38;;;;;;;6.97;4.20;;;;;;;-144.99;48.13;52093.44;5069259;28;20230;-72
2021/06/05 08:29:13;;;;;;;10.43;6.83;;;;;;;-144.99;47.52;52069.00;5069338;28;20266;-72
2021/06/05 08:31:47;;;;;;;9.23;5.83;;;;;;;-144.99;46.99;52075.09;5064317;28;20594;-72
2021/06/05 08:34:24;;;;;;;6.20;4.80;;;;;;;-144.99;45.93;52079.19;5068891;28;20239;-71
2021/06/05 08:36:59;;;;;;;6.13;3.17;;;;;;;-144.99;45.91;52121.97;5066696;28;20671;-71
2021/06/05 08:39:34;;;;;;;9.33;5.33;;;;;;;-144.99;45.66;52064.91;5068903;28;20214;-71
2021/06/05 08:42:11;;;;;;;7.50;4.03;;;;;;;-144.99;45.06;52091.41;5064582;28;20291;-73
2021/06/05 08:44:47;;;;;;;4.60;3.00;;;;;;;-144.99;45.14;52115.88;5067729;28;20238;-73
2021/06/05 08:47:26;;;;;;;10.93;3.60;;;;;;;-144.99;45.67;52097.53;5062796;28;20211;-75
2021/06/05 08:50:04;;;;;;;6.47;3.70;;;;;;;-144.99;45.35;52069.00;5069915;28;20293;-74
2021/06/05 08:52:45;;;;;;;5.13;3.90;;;;;;;-144.99;45.06;52097.53;5061843;28;20211;-75
2021/06/05 08:55:27;;;;;;;8.97;4.40;;;;;;;-144.99;45.20;52064.91;5066097;28;20209;-72
2021/06/05 08:58:08;;;;;;;10.37;4.67;;;;;;;-144.99;44.66;52044.53;5069764;28;20518;-74
2021/06/05 09:00:46;;;;;;;8.10;4.80;;;;;;;-144.99;45.51;52044.53;5070741;28;20326;-72
2021/06/05 09:03:20;;;;;;;7.93;4.40;;;;;;;-144.99;44.87;52113.84;5064408;28;20716;-72
2021/06/05 09:05:58;;;;;;;8.23;3.37;;;;;;;-144.99;44.09;52042.50;5068480;28;20699;-72
2021/06/05 09:08:34;;;;;;;7.03;4.27;;;;;;;-144.99;44.24;52083.25;5069015;28;20650;-75
2021/06/05 09:11:10;;;;;;;7.43;5.33;;;;;;;-144.99;45.08;52069.00;5062543;28;20218;-76
2021/06/05 09:13:47;;;;;;;4.30;3.10;;;;;;;-144.99;43.61;52060.84;4364351;28;10000618;-72
2021/06/05 09:16:40;;;;;;;6.37;5.10;;;;;;;-144.99;43.54;52052.69;5063632;28;20775;-73
2021/06/05 09:19:27;;;;;;;6.03;4.57;;;;;;;-144.99;43.78;52009.91;5051191;28;20744;-75
2021/06/05 09:22:20;;;;;;;6.63;3.93;;;;;;;-144.99;42.73;52044.53;5069965;28;20204;-72
2021/06/05 09:24:55;;;;;;;5.73;3.73;;;;;;;-144.99;41.62;52003.78;5074453;28;20230;-73
2021/06/05 09:27:34;;;;;;;5.43;3.80;;;;;;;-144.99;41.10;52007.84;5069813;28;20212;-74
2021/06/05 09:30:24;;;;;;;7.90;4.50;;;;;;;-144.99;40.88;52030.28;5079859;28;20242;-74
2021/06/05 09:33:09;;;;;;;5.30;3.87;;;;;;;-144.99;40.49;52018.03;5068951;28;20305;-74
2021/06/05 09:35:46;;;;;;;5.93;3.73;;;;;;;-144.99;40.63;52007.84;5058229;28;20257;-73
2021/06/05 09:38:33;;;;;;;6.07;4.03;;;;;;;-144.99;40.47;51975.25;5066595;28;20207;-74
2021/06/05 09:41:14;;;;;;;6.03;4.30;;;;;;;-144.99;40.27;52016.00;5061931;28;20716;-75
2021/06/05 09:43:49;;;;;;;7.07;4.73;;;;;;;-144.99;39.92;52020.09;5067857;28;20248;-73
2021/06/05 09:46:32;;;;;;;6.60;4.20;;;;;;;-144.99;40.51;52069.00;5056966;28;20215;-73
2021/06/05 09:49:23;;;;;;;5.67;3.60;;;;;;;-144.99;40.75;52016.00;5059549;28;20210;-73
2021/06/05 09:52:06;;;;;;;5.87;4.90;;;;;;;-144.99;40.70;52011.94;5066949;28;20226;-74
2021/06/05 09:54:43;;;;;;;5.97;4.17;;;;;;;-144.99;40.10;52016.00;5066145;28;20236;-74
2021/06/05 09:57:43;;;;;;;8.07;4.30;;;;;;;-144.99;39.82;52018.03;5064134;28;20634;-74
2021/06/05 10:00:32;;;;;;;5.50;3.93;;;;;;;-144.99;39.45;51975.25;5060439;28;20295;-73
2021/06/05 10:03:33;;;;;;;5.73;4.13;;;;;;;-144.99;38.58;52016.00;5067991;28;20278;-73
2021/06/05 10:06:23;;;;;;;4.57;3.17;;;;;;;-144.99;38.73;51942.63;5067405;28;20243;-75
2021/06/05 10:08:58;;;;;;;7.23;3.87;;;;;;;-144.99;39.04;51989.50;5068154;28;20361;-73
2021/06/05 10:11:35;;;;;;;4.00;3.50;;;;;;;-144.99;39.81;52036.38;5067586;28;20618;-74
2021/06/05 10:14:16;;;;;;;12.27;7.07;;;;;;;-144.99;39.84;51993.59;5066878;28;20239;-73
2021/06/05 10:16:56;;;;;;;9.27;3.63;;;;;;;-144.99;39.10;51983.41;5056197;28;20215;-73
2021/06/05 10:19:38;;;;;;;6.63;4.97;;;;;;;-144.99;39.35;52016.00;5055075;28;20668;-75
2021/06/05 10:22:15;;;;;;;5.60;3.53;;;;;;;-144.99;38.89;51948.75;5064099;28;20304;-75
2021/06/05 10:24:56;;;;;;;4.07;3.67;;;;;;;-144.99;38.71;51979.31;5067701;28;20674;-74
2021/06/05 10:27:35;;;;;;;4.63;3.70;;;;;;;-144.99;38.17;51975.25;5066778;28;20667;-74
2021/06/05 10:30:21;;;;;;;4.63;4.00;;;;;;;-144.99;36.96;51938.56;5065519;28;20590;-75
2021/06/05 10:32:57;;;;;;;5.90;3.93;;;;;;;-144.99;36.98;51934.50;5057729;28;20232;-73
2021/06/05 10:35:39;;;;;;;4.80;3.57;;;;;;;-144.99;37.28;51930.41;5066105;28;20712;-74
2021/06/05 10:38:18;;;;;;;9.20;3.13;;;;;;;-144.99;37.67;51954.88;5067187;28;20247;-73
2021/06/05 10:40:54;;;;;;;3.17;2.87;;;;;;;-144.99;37.65;51969.13;5059421;28;20711;-73
2021/06/05 10:43:29;;;;;;;3.67;2.77;;;;;;;-144.99;37.85;51975.25;5065668;28;20312;-72
2021/06/05 10:46:14;;;;;;;4.87;3.60;;;;;;;-144.99;37.69;51991.56;5066535;28;20789;-74
2021/06/05 10:48:51;;;;;;;5.53;3.37;;;;;;;-144.99;37.80;51967.09;5053119;28;20213;-73
2021/06/05 10:51:29;;;;;;;5.67;3.40;;;;;;;-144.99;38.41;51983.41;5062442;28;20204;-73
2021/06/05 10:54:08;;;;;;;5.43;3.30;;;;;;;-144.99;38.05;52020.09;5064134;28;20728;-73
2021/06/05 10:56:46;;;;;;;4.23;2.70;;;;;;;-144.99;37.52;51999.69;5068138;28;20212;-74
2021/06/05 10:59:49;;;;;;;17.80;5.87;;;;;;;-144.99;37.44;51999.69;5065989;28;20622;-75
2021/06/05 11:02:48;;;;;;;9.83;6.10;;;;;;;-144.99;37.55;51991.56;5059832;28;20227;-74
2021/06/05 11:05:44;;;;;;;4.70;3.20;;;;;;;-144.99;37.36;52026.19;5066960;28;20311;-72
2021/06/05 11:08:44;;;;;;;5.50;2.33;;;;;;;-144.99;38.39;52046.56;5067054;28;20819;-73
2021/06/05 11:11:39;;;;;;;3.87;2.83;;;;;;;-144.99;38.20;51987.47;5073533;28;20258;-74
2021/06/05 11:14:35;;;;;;;4.23;3.70;;;;;;;-144.99;38.12;51948.75;5067682;28;20232;-75
2021/06/05 11:17:26;;;;;;;9.23;4.60;;;;;;;-144.99;38.42;52016.00;5068975;28;20204;-74
2021/06/05 11:20:38;;;;;;;4.23;3.20;;;;;;;-144.99;37.83;51997.66;5064948;28;20208;-75
2021/06/05 11:23:33;;;;;;;5.57;3.37;;;;;;;-144.99;38.04;51954.88;5066191;28;20243;-76
2021/06/05 11:26:31;;;;;;;5.23;3.60;;;;;;;-144.99;37.64;51983.41;5073182;28;20248;-75
2021/06/05 11:29:09;;;;;;;4.13;2.58;;;;;;;-144.99;37.78;51975.25;4357431;28;10000755;-77
2021/06/05 11:31:55;;;;;;;8.60;3.73;;;;;;;-144.99;37.63;51983.41;5063422;28;20208;-75
2021/06/05 11:35:03;;;;;;;6.23;4.17;;;;;;;-144.99;37.55;51999.69;5060955;28;20713;-77
2021/06/05 11:37:53;;;;;;;6.37;4.13;;;;;;;-144.99;38.70;51963.03;5062862;28;20236;-72
2021/06/05 11:40:59;;;;;;;5.77;3.50;;;;;;;-144.99;38.35;51971.16;5063872;28;20224;-74
2021/06/05 11:43:51;;;;;;;5.13;3.50;;;;;;;-144.99;38.37;51991.56;4982622;28;20313;-73
2021/06/05 11:46:47;;;;;;;5.77;3.33;;;;;;;-144.99;37.54;51946.72;5059528;28;20628;-74
2021/06/05 11:49:50;;;;;;;4.50;2.77;;;;;;;-144.99;36.90;51885.56;5060555;28;20222;-75
2021/06/05 11:52:50;;;;;;;6.53;3.63;;;;;;;-144.99;36.36;51879.47;5055933;28;20204;-74
2021/06/05 11:55:41;;;;;;;4.70;3.20;;;;;;;-144.99;36.39;51897.81;5059777;28;20765;-73
2021/06/05 11:58:43;;;;;;;3.03;2.70;;;;;;;-144.99;36.34;51918.19;5069619;28;20439;-74
2021/06/05 12:01:28;;;;;;;4.20;2.83;;;;;;;-144.99;35.91;51954.88;5056076;28;20301;-75